createdAt,value
2022-11-03T00:02:26.454Z,52.57
2022-11-03T00:04:53.956Z,52.48
2022-11-03T00:07:21.796Z,52.56
2022-11-03T00:09:49.701Z,52.58
2022-11-03T00:12:17.173Z,52.33
2022-11-03T00:14:44.624Z,52.38
2022-11-03T00:17:12.071Z,52.57
2022-11-03T00:19:40.850Z,52.39
2022-11-03T00:22:08.309Z,52.45
2022-11-03T00:24:35.765Z,52.77
2022-11-03T00:27:03.230Z,52.47
2022-11-03T00:29:30.678Z,52.77
2022-11-03T00:31:58.166Z,52.41
2022-11-03T00:34:25.679Z,52.64
2022-11-03T00:36:54.617Z,52.52
2022-11-03T00:39:22.076Z,52.72
2022-11-03T00:41:49.531Z,52.57
2022-11-03T00:44:16.995Z,52.55
2022-11-03T00:46:44.472Z,52.83
2022-11-03T00:49:11.908Z,52.81
2022-11-03T00:51:39.346Z,52.65
2022-11-03T00:54:08.350Z,52.67
2022-11-03T00:56:36.350Z,52.77
2022-11-03T00:59:04.692Z,52.46
2022-11-03T01:01:32.929Z,52.83
2022-11-03T01:04:18.200Z,52.85
2022-11-03T01:06:54.349Z,52.60
2022-11-03T01:09:23.930Z,52.76
2022-11-03T01:11:53.386Z,52.84
2022-11-03T01:14:20.831Z,52.63
2022-11-03T01:16:48.282Z,52.76
2022-11-03T01:19:15.720Z,52.97
2022-11-03T01:21:43.907Z,52.79
2022-11-03T01:24:11.386Z,52.85
2022-11-03T01:26:40.161Z,52.79
2022-11-03T01:29:07.647Z,52.67
2022-11-03T01:31:35.147Z,52.72
2022-11-03T01:34:02.633Z,52.82
2022-11-03T01:36:30.062Z,52.87
2022-11-03T01:38:57.706Z,52.45
2022-11-03T01:41:26.720Z,52.87
2022-11-03T01:44:26.394Z,52.73
2022-11-03T01:46:55.051Z,52.96
2022-11-03T01:49:24.395Z,52.98
2022-11-03T01:51:54.602Z,52.86
2022-11-03T01:54:22.419Z,52.98
2022-11-03T01:56:51.383Z,52.99
2022-11-03T01:59:19.075Z,52.95
2022-11-03T02:01:47.930Z,53.03
2022-11-03T02:04:17.631Z,52.90
2022-11-03T02:06:45.076Z,52.99
2022-11-03T02:09:12.499Z,53.10
2022-11-03T02:11:57.579Z,53.11
2022-11-03T02:14:25.020Z,52.94
2022-11-03T02:16:54.940Z,52.96
2022-11-03T02:19:30.584Z,52.88
2022-11-03T02:22:00.014Z,53.17
2022-11-03T02:24:31.327Z,53.09
2022-11-03T02:27:00.066Z,53.00
2022-11-03T02:29:27.528Z,53.08
2022-11-03T02:31:58.007Z,53.16
2022-11-03T02:34:28.280Z,52.97
2022-11-03T02:36:57.020Z,53.07
2022-11-03T02:39:25.918Z,53.17
2022-11-03T02:41:53.488Z,53.45
2022-11-03T02:44:22.239Z,53.23
2022-11-03T02:46:51.551Z,53.09
2022-11-03T02:49:19.007Z,53.00
2022-11-03T02:51:46.496Z,53.12
2022-11-03T02:54:16.910Z,53.20
2022-11-03T02:56:46.628Z,53.23
2022-11-03T02:59:15.174Z,53.29
2022-11-03T03:01:47.912Z,53.22
2022-11-03T03:04:17.478Z,53.19
2022-11-03T03:06:45.496Z,53.30
2022-11-03T03:09:14.892Z,53.36
2022-11-03T03:11:42.539Z,53.31
2022-11-03T03:14:11.996Z,53.18
2022-11-03T03:16:47.653Z,53.01
2022-11-03T03:19:19.820Z,53.13
2022-11-03T03:21:48.387Z,53.38
2022-11-03T03:24:19.885Z,53.20
2022-11-03T03:26:49.444Z,53.13
2022-11-03T03:29:18.511Z,53.12
2022-11-03T03:31:50.939Z,53.35
2022-11-03T03:34:33.900Z,52.92
2022-11-03T03:37:02.421Z,53.20
2022-11-03T03:39:31.100Z,52.99
2022-11-03T03:41:58.712Z,52.93
2022-11-03T03:44:26.154Z,53.03
2022-11-03T03:46:58.043Z,53.33
2022-11-03T03:49:25.495Z,53.07
2022-11-03T03:51:52.933Z,53.12
2022-11-03T03:54:20.378Z,53.07
2022-11-03T03:56:49.922Z,53.21
2022-11-03T03:59:17.362Z,53.09
2022-11-03T04:01:44.931Z,53.26
2022-11-03T04:04:13.807Z,53.14
2022-11-03T04:06:41.241Z,53.28
2022-11-03T04:09:09.623Z,53.46
2022-11-03T04:11:54.665Z,53.38
2022-11-03T04:14:39.967Z,53.24
2022-11-03T04:17:28.919Z,53.29
2022-11-03T04:20:15.407Z,53.53
2022-11-03T04:22:42.852Z,53.42
2022-11-03T04:25:10.323Z,53.57
2022-11-03T04:27:38.124Z,53.34
2022-11-03T04:30:11.066Z,53.41
2022-11-03T04:32:38.498Z,53.61
2022-11-03T04:35:15.394Z,53.35
2022-11-03T04:37:47.305Z,53.46
2022-11-03T04:40:16.151Z,53.45
2022-11-03T04:42:44.047Z,53.50
2022-11-03T04:45:19.723Z,53.60
2022-11-03T04:47:47.190Z,53.61
2022-11-03T04:50:18.144Z,53.52
2022-11-03T04:52:45.570Z,53.62
2022-11-03T04:55:15.166Z,53.49
2022-11-03T04:57:42.579Z,53.57
2022-11-03T05:00:15.356Z,53.71
2022-11-03T05:02:43.751Z,53.52
2022-11-03T05:05:17.702Z,53.59
2022-11-03T05:07:45.136Z,53.52
2022-11-03T05:10:12.860Z,53.76
2022-11-03T05:12:40.311Z,53.86
2022-11-03T05:15:11.156Z,54.15
2022-11-03T05:17:38.603Z,53.74
2022-11-03T05:20:07.598Z,53.87
2022-11-03T05:22:36.867Z,53.95
2022-11-03T05:25:21.385Z,53.88
2022-11-03T05:27:48.840Z,53.84
2022-11-03T05:30:16.489Z,53.95
2022-11-03T05:32:43.940Z,53.88
2022-11-03T05:35:12.695Z,53.89
2022-11-03T05:37:41.456Z,54.01
2022-11-03T05:40:15.873Z,54.06
2022-11-03T05:42:44.955Z,54.05
2022-11-03T05:45:17.061Z,53.96
2022-11-03T05:47:44.495Z,54.09
2022-11-03T05:50:17.363Z,54.12
2022-11-03T05:52:46.186Z,54.13
2022-11-03T05:55:26.766Z,54.04
2022-11-03T05:57:54.636Z,54.24
2022-11-03T06:00:26.968Z,54.24
2022-11-03T06:02:55.196Z,54.28
2022-11-03T06:05:23.580Z,54.17
2022-11-03T06:07:53.950Z,54.83
2022-11-03T06:10:24.605Z,53.99
2022-11-03T06:12:52.067Z,54.15
2022-11-03T06:15:27.455Z,55.08
2022-11-03T06:17:54.885Z,55.04
2022-11-03T06:20:22.519Z,55.26
2022-11-03T06:22:50.364Z,55.27
2022-11-03T06:25:22.747Z,55.38
2022-11-03T06:27:50.193Z,55.63
2022-11-03T06:30:22.292Z,55.94
2022-11-03T06:32:49.714Z,55.30
2022-11-03T06:35:17.185Z,55.29
2022-11-03T06:37:44.639Z,54.72
2022-11-03T06:40:34.611Z,54.54
2022-11-03T06:43:07.042Z,54.49
2022-11-03T06:45:34.744Z,54.60
2022-11-03T06:48:02.160Z,55.17
2022-11-03T06:50:31.082Z,55.06
2022-11-03T06:52:58.981Z,55.07
2022-11-03T06:55:27.687Z,55.18
2022-11-03T06:57:58.450Z,55.39
2022-11-03T07:00:45.868Z,55.74
2022-11-03T07:03:15.636Z,56.39
2022-11-03T07:05:45.013Z,56.42
2022-11-03T07:08:17.491Z,56.81
2022-11-03T07:10:44.943Z,56.43
2022-11-03T07:13:16.355Z,56.19
2022-11-03T07:15:44.079Z,55.78
2022-11-03T07:18:17.973Z,55.70
2022-11-03T07:20:45.401Z,55.68
2022-11-03T07:23:14.208Z,55.54
2022-11-03T07:25:41.652Z,55.71
2022-11-03T07:28:09.798Z,55.22
2022-11-03T07:30:38.647Z,55.60
2022-11-03T07:33:11.930Z,55.50
2022-11-03T07:36:08.589Z,55.49
2022-11-03T07:38:28.956Z,55.45
2022-11-03T07:40:57.862Z,55.50
2022-11-03T07:43:28.506Z,55.33
2022-11-03T07:45:57.480Z,55.33
2022-11-03T07:48:26.428Z,55.44
2022-11-03T07:50:54.525Z,55.49
2022-11-03T07:53:26.205Z,55.66
2022-11-03T07:55:54.770Z,55.42
2022-11-03T07:58:24.423Z,55.43
2022-11-03T08:00:57.404Z,55.51
2022-11-03T08:03:37.380Z,55.94
2022-11-03T08:06:07.511Z,55.63
2022-11-03T08:08:37.392Z,55.68
2022-11-03T08:11:05.015Z,55.53
2022-11-03T08:13:32.457Z,55.66
2022-11-03T08:16:00.229Z,55.60
2022-11-03T08:18:27.694Z,55.54
2022-11-03T08:20:56.464Z,55.48
2022-11-03T08:23:26.394Z,54.32
2022-11-03T08:25:54.171Z,55.47
2022-11-03T08:28:21.607Z,55.81
2022-11-03T08:30:49.115Z,56.53
2022-11-03T08:33:16.771Z,57.68
2022-11-03T08:35:44.266Z,57.87
2022-11-03T08:38:13.009Z,58.07
2022-11-03T08:40:40.468Z,57.70
2022-11-03T08:43:07.895Z,58.14
2022-11-03T08:45:35.407Z,58.27
2022-11-03T08:48:02.913Z,58.38
2022-11-03T08:50:30.384Z,57.37
2022-11-03T08:52:57.891Z,57.27
2022-11-03T08:55:26.677Z,57.07
2022-11-03T08:57:54.112Z,56.63
2022-11-03T09:00:22.337Z,56.50
2022-11-03T09:02:49.805Z,55.64
2022-11-03T09:05:17.358Z,55.65
2022-11-03T09:10:35.713Z,55.27
2022-11-03T09:13:06.296Z,55.41
2022-11-03T09:15:33.919Z,55.13
2022-11-03T09:18:01.380Z,54.65
2022-11-03T09:20:28.857Z,54.77
2022-11-03T09:22:56.317Z,54.90
2022-11-03T09:25:23.896Z,54.71
2022-11-03T09:27:52.677Z,55.07
2022-11-03T09:30:21.035Z,54.88
2022-11-03T09:32:48.516Z,54.94
2022-11-03T09:35:16.934Z,55.35
2022-11-03T09:37:44.498Z,55.38
2022-11-03T09:40:12.966Z,55.20
2022-11-03T09:42:40.404Z,55.17
2022-11-03T09:45:10.469Z,55.33
2022-11-03T09:47:38.930Z,55.83
2022-11-03T09:50:08.625Z,55.98
2022-11-03T09:52:36.102Z,55.99
2022-11-03T09:55:03.532Z,56.16
2022-11-03T09:57:31.047Z,56.38
2022-11-03T09:59:58.480Z,56.19
2022-11-03T10:02:28.259Z,56.13
2022-11-03T10:04:57.087Z,56.23
2022-11-03T10:07:24.712Z,56.41
2022-11-03T10:09:52.407Z,56.44
2022-11-03T10:12:20.093Z,56.30
2022-11-03T10:14:47.852Z,56.57
2022-11-03T10:17:18.173Z,56.53
2022-11-03T10:19:48.849Z,56.71
2022-11-03T10:22:16.321Z,56.42
2022-11-03T10:24:43.767Z,56.54
2022-11-03T10:27:21.688Z,56.54
2022-11-03T10:30:05.291Z,56.45
2022-11-03T10:32:34.237Z,56.69
2022-11-03T10:35:03.364Z,56.34
2022-11-03T10:37:30.870Z,56.75
2022-11-03T10:39:58.806Z,56.43
2022-11-03T10:42:30.664Z,56.80
2022-11-03T10:45:11.244Z,56.31
2022-11-03T10:47:38.723Z,56.49
2022-11-03T10:50:22.786Z,56.63
2022-11-03T10:52:50.406Z,56.59
2022-11-03T10:55:22.096Z,56.45
2022-11-03T10:57:53.240Z,56.45
2022-11-03T11:00:21.132Z,56.64
2022-11-03T11:02:49.021Z,56.37
2022-11-03T11:05:20.951Z,56.45
2022-11-03T11:07:48.631Z,56.72
2022-11-03T11:10:17.876Z,56.50
2022-11-03T11:13:04.162Z,56.55
2022-11-03T11:15:40.277Z,56.67
2022-11-03T11:18:07.812Z,56.33
2022-11-03T11:20:38.194Z,56.65
2022-11-03T11:23:49.047Z,56.65
2022-11-03T11:26:34.733Z,56.93
2022-11-03T11:29:41.694Z,56.70
2022-11-03T11:32:51.930Z,56.71
2022-11-03T11:35:34.402Z,56.70
2022-11-03T11:38:35.386Z,56.68
2022-11-03T11:41:04.152Z,56.72
2022-11-03T11:43:32.025Z,56.82
2022-11-03T11:46:36.115Z,56.67
2022-11-03T11:49:17.618Z,57.02
2022-11-03T11:51:45.056Z,56.99
2022-11-03T11:54:18.314Z,57.11
2022-11-03T11:56:48.423Z,57.13
2022-11-03T11:59:23.015Z,57.35
2022-11-03T12:01:53.030Z,57.03
2022-11-03T12:04:22.803Z,57.00
2022-11-03T12:06:50.308Z,57.24
2022-11-03T12:09:18.662Z,57.08
2022-11-03T12:11:50.135Z,56.73
2022-11-03T12:14:23.423Z,56.97
2022-11-03T12:16:50.878Z,56.87
2022-11-03T12:19:35.949Z,57.03
2022-11-03T12:22:03.485Z,57.11
2022-11-03T12:24:50.599Z,57.23
2022-11-03T12:27:21.552Z,57.27
2022-11-03T12:29:48.995Z,57.15
2022-11-03T12:32:32.364Z,57.25
2022-11-03T12:35:00.732Z,57.28
2022-11-03T12:37:28.190Z,56.47
2022-11-03T12:39:55.667Z,56.65
2022-11-03T12:42:25.145Z,56.83
2022-11-03T12:44:52.940Z,57.16
2022-11-03T12:47:20.532Z,57.30
2022-11-03T12:49:47.981Z,57.06
2022-11-03T12:52:15.562Z,57.14
2022-11-03T12:54:43.060Z,56.96
2022-11-03T12:57:10.507Z,57.25
2022-11-03T12:59:39.274Z,57.00
2022-11-03T13:02:06.826Z,57.05
2022-11-03T13:04:34.355Z,57.12
2022-11-03T13:07:01.820Z,57.21
2022-11-03T13:09:29.269Z,57.04
2022-11-03T13:12:14.653Z,57.07
2022-11-03T13:14:46.058Z,57.28
2022-11-03T13:17:15.237Z,57.46
2022-11-03T13:19:42.775Z,57.23
2022-11-03T13:22:10.438Z,57.31
2022-11-03T13:24:38.053Z,57.47
2022-11-03T13:27:05.528Z,57.28
2022-11-03T13:29:35.737Z,57.28
2022-11-03T13:32:04.886Z,57.33
2022-11-03T13:34:32.475Z,57.16
2022-11-03T13:36:59.964Z,56.99
2022-11-03T13:39:27.456Z,57.21
2022-11-03T13:41:54.941Z,56.88
2022-11-03T13:44:22.396Z,56.93
2022-11-03T13:46:50.415Z,57.02
2022-11-03T13:50:07.574Z,57.21
2022-11-03T13:52:08.693Z,57.19
2022-11-03T14:00:13.855Z,57.14
2022-11-03T14:05:30.100Z,57.14
2022-11-03T14:07:57.567Z,57.29
2022-11-03T14:10:25.022Z,57.35
2022-11-03T14:12:52.489Z,57.21
2022-11-03T14:15:20.090Z,57.10
2022-11-03T14:17:47.931Z,56.98
2022-11-03T14:20:15.480Z,56.99
2022-11-03T14:22:44.398Z,57.15
2022-11-03T14:25:11.841Z,56.91
2022-11-03T14:27:39.477Z,57.02
2022-11-03T14:30:08.289Z,57.35
2022-11-03T14:32:35.792Z,57.19
2022-11-03T14:35:03.323Z,56.92
2022-11-03T14:37:30.912Z,56.93
2022-11-03T14:39:59.931Z,57.30
2022-11-03T14:42:26.472Z,57.62
2022-11-03T14:44:54.004Z,57.33
2022-11-03T14:47:22.157Z,57.47
2022-11-03T14:49:49.678Z,57.29
2022-11-03T14:52:17.638Z,57.43
2022-11-03T14:54:45.175Z,57.29
2022-11-03T14:57:14.100Z,57.56
2022-11-03T14:59:41.945Z,57.26
2022-11-03T15:02:09.693Z,57.41
2022-11-03T15:04:37.483Z,57.39
2022-11-03T15:07:05.012Z,57.63
2022-11-03T15:09:32.460Z,57.48
2022-11-03T15:11:59.976Z,57.45
2022-11-03T15:14:29.870Z,57.24
2022-11-03T15:16:57.371Z,57.46
2022-11-03T15:19:24.826Z,57.71
2022-11-03T15:21:52.300Z,57.49
2022-11-03T15:27:07.622Z,57.50
2022-11-03T15:29:37.618Z,57.50
2022-11-03T15:32:07.005Z,57.65
2022-11-03T15:34:34.483Z,58.01
2022-11-03T15:37:01.929Z,58.10
2022-11-03T15:39:29.714Z,58.07
2022-11-03T15:41:57.271Z,58.02
2022-11-03T15:44:24.733Z,57.99
2022-11-03T15:46:53.520Z,58.22
2022-11-03T15:49:20.958Z,57.92
2022-11-03T15:51:48.411Z,58.14
2022-11-03T15:54:15.865Z,57.83
2022-11-03T15:56:43.459Z,57.89
2022-11-03T15:59:10.892Z,57.69
2022-11-03T16:01:38.562Z,58.02
2022-11-03T16:04:07.408Z,57.77
2022-11-03T16:07:01.832Z,57.91
2022-11-03T16:09:22.394Z,57.88
2022-11-03T16:11:49.911Z,58.04
2022-11-03T16:14:17.345Z,57.74
2022-11-03T16:16:44.818Z,57.99
2022-11-03T16:19:13.699Z,57.71
2022-11-03T16:21:41.336Z,57.51
2022-11-03T16:24:09.204Z,57.82
2022-11-03T16:26:36.677Z,57.81
2022-11-03T16:29:04.152Z,57.75
2022-11-03T16:31:31.595Z,57.79
2022-11-03T16:33:59.086Z,57.75
2022-11-03T16:36:27.871Z,57.71
2022-11-03T16:38:55.337Z,57.53
2022-11-03T16:41:22.783Z,57.66
2022-11-03T16:43:50.215Z,57.72
2022-11-03T16:46:17.727Z,57.82
2022-11-03T16:48:45.283Z,57.92
2022-11-03T16:51:13.693Z,57.88
2022-11-03T16:53:42.528Z,58.06
2022-11-03T16:56:09.963Z,57.93
2022-11-03T16:58:37.460Z,57.91
2022-11-03T17:01:05.337Z,57.77
2022-11-03T17:03:32.845Z,57.95
2022-11-03T17:06:00.355Z,57.71
2022-11-03T17:11:35.479Z,57.89
2022-11-03T17:14:04.305Z,58.06
2022-11-03T17:16:32.033Z,58.32
2022-11-03T17:18:59.943Z,58.05
2022-11-03T17:21:27.537Z,58.06
2022-11-03T17:23:55.018Z,58.03
2022-11-03T17:26:25.700Z,58.00
2022-11-03T17:28:54.039Z,57.97
2022-11-03T17:31:21.581Z,57.86
2022-11-03T17:33:49.041Z,57.95
2022-11-03T17:36:16.490Z,57.87
2022-11-03T17:38:43.951Z,58.11
2022-11-03T17:41:14.984Z,58.15
2022-11-03T17:43:46.854Z,58.02
2022-11-03T17:46:14.336Z,58.05
2022-11-03T17:48:41.765Z,58.12
2022-11-03T17:51:11.937Z,58.25
2022-11-03T17:53:39.564Z,58.22
2022-11-03T17:56:28.906Z,58.08
2022-11-03T17:58:59.791Z,58.26
2022-11-03T18:01:32.678Z,58.22
2022-11-03T18:04:02.899Z,58.12
2022-11-03T18:06:38.681Z,58.26
2022-11-03T18:09:07.265Z,58.34
2022-11-03T18:11:52.739Z,58.26
2022-11-03T18:14:27.576Z,58.43
2022-11-03T18:17:05.959Z,58.46
2022-11-03T18:19:41.578Z,58.31
2022-11-03T18:22:22.199Z,58.26
2022-11-03T18:24:52.653Z,58.37
2022-11-03T18:27:25.654Z,58.19
2022-11-03T18:30:06.802Z,58.39
2022-11-03T18:32:38.120Z,58.21
2022-11-03T18:35:06.605Z,58.51
2022-11-03T18:37:38.621Z,58.13
2022-11-03T18:40:12.208Z,58.26
2022-11-03T18:42:43.757Z,58.33
2022-11-03T18:45:19.163Z,58.50
2022-11-03T18:47:54.178Z,58.11
2022-11-03T18:50:22.411Z,58.23
2022-11-03T18:52:57.395Z,58.41
2022-11-03T18:55:26.935Z,58.32
2022-11-03T18:58:15.474Z,58.18
2022-11-03T19:00:55.175Z,58.06
2022-11-03T19:03:30.907Z,58.44
2022-11-03T19:06:05.279Z,58.34
2022-11-03T19:08:36.146Z,58.25
2022-11-03T19:11:24.540Z,58.42
2022-11-03T19:13:56.462Z,58.33
2022-11-03T19:16:26.126Z,58.52
2022-11-03T19:19:04.846Z,58.37
2022-11-03T19:21:38.230Z,58.53
2022-11-03T19:24:14.410Z,58.56
2022-11-03T19:26:44.542Z,58.61
2022-11-03T19:29:20.638Z,58.51
2022-11-03T19:32:03.942Z,58.51
2022-11-03T19:34:37.330Z,58.58
2022-11-03T19:37:12.675Z,58.53
2022-11-03T19:39:53.648Z,58.48
2022-11-03T19:42:33.311Z,58.52
2022-11-03T19:45:01.583Z,58.58
2022-11-03T19:47:33.173Z,58.78
2022-11-03T19:50:01.035Z,58.61
2022-11-03T19:52:29.352Z,58.57
2022-11-03T19:54:56.783Z,58.75
2022-11-03T19:57:24.229Z,58.59
2022-11-03T19:59:51.659Z,58.61
2022-11-03T20:02:19.244Z,58.62
2022-11-03T20:04:48.103Z,58.57
2022-11-03T20:07:15.570Z,58.79
2022-11-03T20:09:43.030Z,58.74
2022-11-03T20:12:19.306Z,58.93
2022-11-03T20:14:46.755Z,58.86
2022-11-03T20:17:15.119Z,58.76
2022-11-03T20:19:42.551Z,58.87
2022-11-03T20:22:15.820Z,58.98
2022-11-03T20:24:43.460Z,59.06
2022-11-03T20:27:11.616Z,58.92
2022-11-03T20:29:39.076Z,58.81
2022-11-03T20:32:07.505Z,58.99
2022-11-03T20:34:34.954Z,58.93
2022-11-03T20:37:05.589Z,59.16
2022-11-03T20:39:34.501Z,59.03
2022-11-03T20:42:01.992Z,59.10
2022-11-03T20:44:29.430Z,59.04
2022-11-03T20:46:56.878Z,59.05
2022-11-03T20:49:24.344Z,59.04
2022-11-03T20:51:51.838Z,59.42
2022-11-03T20:54:19.828Z,59.16
2022-11-03T20:56:48.607Z,59.27
2022-11-03T20:59:18.003Z,59.61
2022-11-03T21:01:45.987Z,59.74
2022-11-03T21:04:14.321Z,59.45
2022-11-03T21:06:41.818Z,59.67
2022-11-03T21:09:11.944Z,59.81
2022-11-03T21:11:40.455Z,59.71
2022-11-03T21:14:15.814Z,59.74
2022-11-03T21:17:01.054Z,59.64
2022-11-03T21:19:47.957Z,59.59
2022-11-03T21:22:51.306Z,59.70
2022-11-03T21:25:03.618Z,59.76
2022-11-03T21:27:31.137Z,59.65
2022-11-03T21:30:00.621Z,59.66
2022-11-03T21:32:28.249Z,59.88
2022-11-03T21:34:55.694Z,59.81
2022-11-03T21:37:26.919Z,59.83
2022-11-03T21:40:00.114Z,59.71
2022-11-03T21:42:50.639Z,59.77
2022-11-03T21:45:20.518Z,60.02
2022-11-03T21:48:10.075Z,59.81
2022-11-03T21:50:46.033Z,60.11
2022-11-03T21:53:21.727Z,60.04
2022-11-03T21:56:02.599Z,60.02
2022-11-03T21:58:38.756Z,60.07
2022-11-03T22:01:11.368Z,59.93
2022-11-03T22:03:43.746Z,60.07
2022-11-03T22:06:15.829Z,60.19
2022-11-03T22:08:57.356Z,60.15
2022-11-03T22:11:27.970Z,60.09
2022-11-03T22:14:02.277Z,60.15
2022-11-03T22:16:42.753Z,60.38
2022-11-03T22:19:33.717Z,60.33
2022-11-03T22:22:19.426Z,60.34
2022-11-03T22:25:04.741Z,60.23
2022-11-03T22:27:33.027Z,60.07
2022-11-03T22:30:18.069Z,60.11
2022-11-03T22:32:50.820Z,60.13
2022-11-03T22:35:36.121Z,60.02
2022-11-03T22:38:05.267Z,60.06
2022-11-03T22:40:50.403Z,59.92
2022-11-03T22:43:35.726Z,60.15
2022-11-03T22:46:03.540Z,59.87
2022-11-03T22:48:32.649Z,59.89
2022-11-03T22:51:01.693Z,60.11
2022-11-03T22:53:47.197Z,59.82
2022-11-03T22:56:14.667Z,59.95
2022-11-03T22:58:42.144Z,60.13
2022-11-03T23:01:11.555Z,60.03
2022-11-03T23:03:41.004Z,59.99
2022-11-03T23:06:09.254Z,60.15
2022-11-03T23:08:37.881Z,60.01
2022-11-03T23:11:06.517Z,60.17
2022-11-03T23:13:33.970Z,60.24
2022-11-03T23:16:01.474Z,60.26
2022-11-03T23:18:46.883Z,60.19
2022-11-03T23:21:15.681Z,60.30
2022-11-03T23:24:01.033Z,60.11
2022-11-03T23:26:28.483Z,60.19
2022-11-03T23:28:55.954Z,60.41
2022-11-03T23:33:48.668Z,60.47
2022-11-03T23:36:17.952Z,60.50
2022-11-03T23:38:45.479Z,60.61
2022-11-03T23:41:14.198Z,60.35
2022-11-03T23:43:41.653Z,60.48
2022-11-03T23:46:27.868Z,60.48
2022-11-03T23:48:55.405Z,60.34
2022-11-03T23:51:25.192Z,60.61
2022-11-03T23:53:52.817Z,60.43
2022-11-03T23:56:38.651Z,60.29
2022-11-03T23:59:06.246Z,60.58
